sensor_id;sensor_type;location;lat;lon;timestamp;P1;durP1;ratioP1;P2;durP2;ratioP2
7933;SDS011;4012;48.896;9.192;2023-04-28T00:01:16;4.67;;;2.80;;
7933;SDS011;4012;48.896;9.192;2023-04-28T00:03:42;4.13;;;2.80;;
7933;SDS011;4012;48.896;9.192;2023-04-28T00:06:07;3.63;;;2.90;;
7933;SDS011;4012;48.896;9.192;2023-04-28T00:08:33;3.67;;;2.77;;
7933;SDS011;4012;48.896;9.192;2023-04-28T00:11:11;2.83;;;2.50;;
7933;SDS011;4012;48.896;9.192;2023-04-28T00:13:39;4.33;;;2.50;;
7933;SDS011;4012;48.896;9.192;2023-04-28T00:16:05;5.07;;;2.00;;
7933;SDS011;4012;48.896;9.192;2023-04-28T00:18:31;3.60;;;2.20;;
7933;SDS011;4012;48.896;9.192;2023-04-28T00:20:57;4.03;;;2.10;;
7933;SDS011;4012;48.896;9.192;2023-04-28T00:23:23;2.23;;;2.03;;
7933;SDS011;4012;48.896;9.192;2023-04-28T00:25:52;3.50;;;1.90;;
7933;SDS011;4012;48.896;9.192;2023-04-28T00:28:18;2.67;;;2.03;;
7933;SDS011;4012;48.896;9.192;2023-04-28T00:30:44;3.43;;;2.50;;
7933;SDS011;4012;48.896;9.192;2023-04-28T00:33:10;3.63;;;2.30;;
7933;SDS011;4012;48.896;9.192;2023-04-28T00:35:39;4.80;;;2.30;;
7933;SDS011;4012;48.896;9.192;2023-04-28T00:38:06;2.83;;;2.40;;
7933;SDS011;4012;48.896;9.192;2023-04-28T00:40:35;4.10;;;2.37;;
7933;SDS011;4012;48.896;9.192;2023-04-28T00:43:02;3.13;;;2.40;;
7933;SDS011;4012;48.896;9.192;2023-04-28T00:45:28;4.13;;;2.30;;
7933;SDS011;4012;48.896;9.192;2023-04-28T00:47:54;2.43;;;2.23;;
7933;SDS011;4012;48.896;9.192;2023-04-28T00:50:21;3.20;;;2.40;;
7933;SDS011;4012;48.896;9.192;2023-04-28T00:52:50;2.30;;;2.10;;
7933;SDS011;4012;48.896;9.192;2023-04-28T00:55:15;3.33;;;2.70;;
7933;SDS011;4012;48.896;9.192;2023-04-28T00:57:41;3.93;;;2.60;;
7933;SDS011;4012;48.896;9.192;2023-04-28T01:00:07;2.83;;;2.27;;
7933;SDS011;4012;48.896;9.192;2023-04-28T01:02:37;2.50;;;2.10;;
7933;SDS011;4012;48.896;9.192;2023-04-28T01:05:03;3.13;;;2.50;;
7933;SDS011;4012;48.896;9.192;2023-04-28T01:07:29;6.03;;;2.33;;
7933;SDS011;4012;48.896;9.192;2023-04-28T01:09:55;2.80;;;2.60;;
7933;SDS011;4012;48.896;9.192;2023-04-28T01:12:21;3.17;;;2.13;;
7933;SDS011;4012;48.896;9.192;2023-04-28T01:14:47;3.03;;;2.30;;
7933;SDS011;4012;48.896;9.192;2023-04-28T01:17:13;2.60;;;2.40;;
7933;SDS011;4012;48.896;9.192;2023-04-28T01:19:39;4.27;;;2.20;;
7933;SDS011;4012;48.896;9.192;2023-04-28T01:22:04;2.87;;;2.43;;
7933;SDS011;4012;48.896;9.192;2023-04-28T01:24:30;2.70;;;2.50;;
7933;SDS011;4012;48.896;9.192;2023-04-28T01:26:56;4.13;;;2.17;;
7933;SDS011;4012;48.896;9.192;2023-04-28T01:29:21;3.07;;;2.33;;
7933;SDS011;4012;48.896;9.192;2023-04-28T01:31:47;2.80;;;2.10;;
7933;SDS011;4012;48.896;9.192;2023-04-28T01:34:13;3.30;;;2.40;;
7933;SDS011;4012;48.896;9.192;2023-04-28T01:36:38;3.40;;;2.13;;
7933;SDS011;4012;48.896;9.192;2023-04-28T01:39:04;2.57;;;2.30;;
7933;SDS011;4012;48.896;9.192;2023-04-28T01:41:30;2.83;;;2.47;;
7933;SDS011;4012;48.896;9.192;2023-04-28T01:43:58;4.10;;;2.83;;
7933;SDS011;4012;48.896;9.192;2023-04-28T01:46:24;4.27;;;2.83;;
7933;SDS011;4012;48.896;9.192;2023-04-28T01:48:50;3.07;;;2.77;;
7933;SDS011;4012;48.896;9.192;2023-04-28T01:51:15;3.37;;;3.07;;
7933;SDS011;4012;48.896;9.192;2023-04-28T01:53:41;4.27;;;3.27;;
7933;SDS011;4012;48.896;9.192;2023-04-28T01:56:06;4.67;;;3.30;;
7933;SDS011;4012;48.896;9.192;2023-04-28T01:58:32;4.07;;;2.37;;
7933;SDS011;4012;48.896;9.192;2023-04-28T02:00:57;3.77;;;3.13;;
7933;SDS011;4012;48.896;9.192;2023-04-28T02:03:23;4.77;;;3.03;;
7933;SDS011;4012;48.896;9.192;2023-04-28T02:05:49;3.10;;;2.80;;
7933;SDS011;4012;48.896;9.192;2023-04-28T02:08:14;2.93;;;2.63;;
7933;SDS011;4012;48.896;9.192;2023-04-28T02:10:40;3.63;;;3.00;;
7933;SDS011;4012;48.896;9.192;2023-04-28T02:13:06;3.03;;;2.57;;
7933;SDS011;4012;48.896;9.192;2023-04-28T02:15:32;3.30;;;2.70;;
7933;SDS011;4012;48.896;9.192;2023-04-28T02:17:59;2.93;;;2.60;;
7933;SDS011;4012;48.896;9.192;2023-04-28T02:20:25;6.37;;;2.97;;
7933;SDS011;4012;48.896;9.192;2023-04-28T02:22:51;2.73;;;2.53;;
7933;SDS011;4012;48.896;9.192;2023-04-28T02:25:17;2.93;;;2.47;;
7933;SDS011;4012;48.896;9.192;2023-04-28T02:27:42;2.93;;;2.63;;
7933;SDS011;4012;48.896;9.192;2023-04-28T02:30:08;2.63;;;2.43;;
7933;SDS011;4012;48.896;9.192;2023-04-28T02:32:34;3.93;;;2.60;;
7933;SDS011;4012;48.896;9.192;2023-04-28T02:34:59;3.20;;;2.50;;
7933;SDS011;4012;48.896;9.192;2023-04-28T02:37:25;3.33;;;2.73;;
7933;SDS011;4012;48.896;9.192;2023-04-28T02:39:50;3.10;;;2.70;;
7933;SDS011;4012;48.896;9.192;2023-04-28T02:42:17;3.90;;;2.60;;
7933;SDS011;4012;48.896;9.192;2023-04-28T02:44:42;3.07;;;2.77;;
7933;SDS011;4012;48.896;9.192;2023-04-28T02:47:08;2.90;;;2.50;;
7933;SDS011;4012;48.896;9.192;2023-04-28T02:49:34;4.63;;;2.43;;
7933;SDS011;4012;48.896;9.192;2023-04-28T02:51:59;3.00;;;2.73;;
7933;SDS011;4012;48.896;9.192;2023-04-28T02:54:25;4.63;;;3.20;;
7933;SDS011;4012;48.896;9.192;2023-04-28T02:56:53;3.67;;;2.50;;
7933;SDS011;4012;48.896;9.192;2023-04-28T02:59:20;3.60;;;2.70;;
7933;SDS011;4012;48.896;9.192;2023-04-28T03:01:46;4.13;;;2.80;;
7933;SDS011;4012;48.896;9.192;2023-04-28T03:04:12;3.10;;;2.77;;
7933;SDS011;4012;48.896;9.192;2023-04-28T03:06:38;2.63;;;2.43;;
7933;SDS011;4012;48.896;9.192;2023-04-28T03:09:04;3.63;;;2.80;;
7933;SDS011;4012;48.896;9.192;2023-04-28T03:11:30;5.60;;;2.53;;
7933;SDS011;4012;48.896;9.192;2023-04-28T03:13:56;2.80;;;2.50;;
7933;SDS011;4012;48.896;9.192;2023-04-28T03:16:22;3.30;;;2.50;;
7933;SDS011;4012;48.896;9.192;2023-04-28T03:18:50;3.97;;;2.70;;
7933;SDS011;4012;48.896;9.192;2023-04-28T03:21:16;3.23;;;2.20;;
7933;SDS011;4012;48.896;9.192;2023-04-28T03:23:41;3.83;;;2.53;;
7933;SDS011;4012;48.896;9.192;2023-04-28T03:26:07;5.93;;;3.30;;
7933;SDS011;4012;48.896;9.192;2023-04-28T03:28:32;3.90;;;2.97;;
7933;SDS011;4012;48.896;9.192;2023-04-28T03:30:58;2.73;;;2.50;;
7933;SDS011;4012;48.896;9.192;2023-04-28T03:33:24;5.60;;;3.57;;
7933;SDS011;4012;48.896;9.192;2023-04-28T03:35:50;3.83;;;3.33;;
7933;SDS011;4012;48.896;9.192;2023-04-28T03:38:15;3.80;;;3.40;;
7933;SDS011;4012;48.896;9.192;2023-04-28T03:40:41;3.77;;;3.40;;
7933;SDS011;4012;48.896;9.192;2023-04-28T03:43:06;3.67;;;3.00;;
7933;SDS011;4012;48.896;9.192;2023-04-28T03:45:32;6.63;;;3.17;;
7933;SDS011;4012;48.896;9.192;2023-04-28T03:47:58;3.43;;;3.13;;
7933;SDS011;4012;48.896;9.192;2023-04-28T03:50:23;3.47;;;2.87;;
7933;SDS011;4012;48.896;9.192;2023-04-28T03:52:49;3.03;;;2.73;;
7933;SDS011;4012;48.896;9.192;2023-04-28T03:55:14;3.40;;;3.10;;
7933;SDS011;4012;48.896;9.192;2023-04-28T03:57:40;4.57;;;3.30;;
7933;SDS011;4012;48.896;9.192;2023-04-28T04:00:06;3.30;;;2.53;;
7933;SDS011;4012;48.896;9.192;2023-04-28T04:02:32;3.07;;;2.40;;
7933;SDS011;4012;48.896;9.192;2023-04-28T04:04:58;3.27;;;2.70;;
7933;SDS011;4012;48.896;9.192;2023-04-28T04:07:24;3.70;;;2.67;;
7933;SDS011;4012;48.896;9.192;2023-04-28T04:09:49;3.30;;;2.50;;
7933;SDS011;4012;48.896;9.192;2023-04-28T04:12:15;3.00;;;2.53;;
7933;SDS011;4012;48.896;9.192;2023-04-28T04:14:41;4.10;;;3.10;;
7933;SDS011;4012;48.896;9.192;2023-04-28T04:17:07;4.30;;;2.33;;
7933;SDS011;4012;48.896;9.192;2023-04-28T04:19:33;2.77;;;2.53;;
7933;SDS011;4012;48.896;9.192;2023-04-28T04:21:58;5.40;;;2.70;;
7933;SDS011;4012;48.896;9.192;2023-04-28T04:24:24;3.13;;;2.73;;
7933;SDS011;4012;48.896;9.192;2023-04-28T04:26:50;5.37;;;3.07;;
7933;SDS011;4012;48.896;9.192;2023-04-28T04:29:15;6.23;;;2.80;;
7933;SDS011;4012;48.896;9.192;2023-04-28T04:31:41;3.53;;;2.60;;
7933;SDS011;4012;48.896;9.192;2023-04-28T04:34:09;5.70;;;3.67;;
7933;SDS011;4012;48.896;9.192;2023-04-28T04:36:35;3.43;;;2.97;;
7933;SDS011;4012;48.896;9.192;2023-04-28T04:39:00;2.80;;;2.60;;
7933;SDS011;4012;48.896;9.192;2023-04-28T04:41:26;6.17;;;3.00;;
7933;SDS011;4012;48.896;9.192;2023-04-28T04:43:52;3.77;;;2.87;;
7933;SDS011;4012;48.896;9.192;2023-04-28T04:46:18;2.60;;;2.40;;
7933;SDS011;4012;48.896;9.192;2023-04-28T04:48:43;2.80;;;2.60;;
7933;SDS011;4012;48.896;9.192;2023-04-28T04:51:09;3.93;;;2.70;;
7933;SDS011;4012;48.896;9.192;2023-04-28T04:53:35;3.70;;;3.10;;
7933;SDS011;4012;48.896;9.192;2023-04-28T04:56:01;5.17;;;3.00;;
7933;SDS011;4012;48.896;9.192;2023-04-28T04:58:27;4.37;;;2.77;;
7933;SDS011;4012;48.896;9.192;2023-04-28T05:00:54;4.03;;;3.63;;
7933;SDS011;4012;48.896;9.192;2023-04-28T05:03:19;6.47;;;4.63;;
7933;SDS011;4012;48.896;9.192;2023-04-28T05:05:45;3.23;;;2.90;;
7933;SDS011;4012;48.896;9.192;2023-04-28T05:08:12;3.93;;;3.50;;
7933;SDS011;4012;48.896;9.192;2023-04-28T05:10:38;3.43;;;2.90;;
7933;SDS011;4012;48.896;9.192;2023-04-28T05:13:04;5.20;;;2.87;;
7933;SDS011;4012;48.896;9.192;2023-04-28T05:15:29;6.50;;;3.73;;
7933;SDS011;4012;48.896;9.192;2023-04-28T05:17:55;4.13;;;3.33;;
7933;SDS011;4012;48.896;9.192;2023-04-28T05:20:21;4.07;;;3.23;;
7933;SDS011;4012;48.896;9.192;2023-04-28T05:22:47;4.17;;;3.17;;
7933;SDS011;4012;48.896;9.192;2023-04-28T05:25:13;3.87;;;3.57;;
7933;SDS011;4012;48.896;9.192;2023-04-28T05:27:39;5.57;;;3.63;;
7933;SDS011;4012;48.896;9.192;2023-04-28T05:30:08;4.00;;;3.00;;
7933;SDS011;4012;48.896;9.192;2023-04-28T05:32:34;5.77;;;3.10;;
7933;SDS011;4012;48.896;9.192;2023-04-28T05:35:00;3.93;;;3.47;;
7933;SDS011;4012;48.896;9.192;2023-04-28T05:37:26;4.23;;;3.43;;
7933;SDS011;4012;48.896;9.192;2023-04-28T05:39:52;3.77;;;3.40;;
7933;SDS011;4012;48.896;9.192;2023-04-28T05:42:17;3.67;;;3.33;;
7933;SDS011;4012;48.896;9.192;2023-04-28T05:44:43;3.87;;;3.47;;
7933;SDS011;4012;48.896;9.192;2023-04-28T05:47:09;18.17;;;13.53;;
7933;SDS011;4012;48.896;9.192;2023-04-28T05:49:35;8.90;;;6.77;;
7933;SDS011;4012;48.896;9.192;2023-04-28T05:52:01;28.97;;;16.83;;
7933;SDS011;4012;48.896;9.192;2023-04-28T05:54:28;14.23;;;11.53;;
7933;SDS011;4012;48.896;9.192;2023-04-28T05:56:53;5.27;;;4.33;;
7933;SDS011;4012;48.896;9.192;2023-04-28T05:59:19;4.23;;;3.40;;
7933;SDS011;4012;48.896;9.192;2023-04-28T06:01:45;6.17;;;3.70;;
7933;SDS011;4012;48.896;9.192;2023-04-28T06:04:11;4.10;;;3.70;;
7933;SDS011;4012;48.896;9.192;2023-04-28T06:06:37;4.33;;;3.43;;
7933;SDS011;4012;48.896;9.192;2023-04-28T06:09:02;5.97;;;4.10;;
7933;SDS011;4012;48.896;9.192;2023-04-28T06:11:28;5.30;;;3.43;;
7933;SDS011;4012;48.896;9.192;2023-04-28T06:13:54;9.53;;;3.47;;
7933;SDS011;4012;48.896;9.192;2023-04-28T06:16:20;6.60;;;4.07;;
7933;SDS011;4012;48.896;9.192;2023-04-28T06:18:47;6.47;;;3.77;;
7933;SDS011;4012;48.896;9.192;2023-04-28T06:21:13;5.03;;;3.57;;
7933;SDS011;4012;48.896;9.192;2023-04-28T06:23:38;3.80;;;3.30;;
7933;SDS011;4012;48.896;9.192;2023-04-28T06:26:06;4.37;;;3.47;;
7933;SDS011;4012;48.896;9.192;2023-04-28T06:28:32;3.73;;;3.33;;
7933;SDS011;4012;48.896;9.192;2023-04-28T06:30:57;4.63;;;3.60;;
7933;SDS011;4012;48.896;9.192;2023-04-28T06:33:23;7.37;;;6.07;;
7933;SDS011;4012;48.896;9.192;2023-04-28T06:35:49;5.73;;;3.97;;
7933;SDS011;4012;48.896;9.192;2023-04-28T06:38:15;6.63;;;4.43;;
7933;SDS011;4012;48.896;9.192;2023-04-28T06:40:40;4.43;;;3.90;;
7933;SDS011;4012;48.896;9.192;2023-04-28T06:43:06;4.43;;;3.70;;
7933;SDS011;4012;48.896;9.192;2023-04-28T06:45:32;7.00;;;5.53;;
7933;SDS011;4012;48.896;9.192;2023-04-28T06:47:57;9.40;;;8.10;;
7933;SDS011;4012;48.896;9.192;2023-04-28T06:50:23;12.87;;;8.93;;
7933;SDS011;4012;48.896;9.192;2023-04-28T06:52:49;5.70;;;4.20;;
7933;SDS011;4012;48.896;9.192;2023-04-28T06:55:14;5.00;;;3.97;;
7933;SDS011;4012;48.896;9.192;2023-04-28T06:57:44;5.53;;;4.00;;
7933;SDS011;4012;48.896;9.192;2023-04-28T07:00:10;3.90;;;3.53;;
7933;SDS011;4012;48.896;9.192;2023-04-28T07:02:36;8.60;;;4.20;;
7933;SDS011;4012;48.896;9.192;2023-04-28T07:05:02;4.30;;;3.53;;
7933;SDS011;4012;48.896;9.192;2023-04-28T07:07:29;6.30;;;4.50;;
7933;SDS011;4012;48.896;9.192;2023-04-28T07:09:54;5.17;;;3.70;;
7933;SDS011;4012;48.896;9.192;2023-04-28T07:12:21;5.37;;;4.13;;
7933;SDS011;4012;48.896;9.192;2023-04-28T07:14:47;6.17;;;4.17;;
7933;SDS011;4012;48.896;9.192;2023-04-28T07:17:13;4.93;;;3.87;;
7933;SDS011;4012;48.896;9.192;2023-04-28T07:19:38;4.37;;;3.20;;
7933;SDS011;4012;48.896;9.192;2023-04-28T07:22:05;3.97;;;3.40;;
7933;SDS011;4012;48.896;9.192;2023-04-28T07:24:30;6.13;;;3.90;;
7933;SDS011;4012;48.896;9.192;2023-04-28T07:26:56;4.43;;;4.03;;
7933;SDS011;4012;48.896;9.192;2023-04-28T07:29:22;4.53;;;4.03;;
7933;SDS011;4012;48.896;9.192;2023-04-28T07:31:48;5.80;;;4.17;;
7933;SDS011;4012;48.896;9.192;2023-04-28T07:34:14;5.77;;;4.33;;
7933;SDS011;4012;48.896;9.192;2023-04-28T07:36:40;4.90;;;4.30;;
7933;SDS011;4012;48.896;9.192;2023-04-28T07:39:06;9.17;;;5.73;;
7933;SDS011;4012;48.896;9.192;2023-04-28T07:41:35;6.70;;;4.00;;
7933;SDS011;4012;48.896;9.192;2023-04-28T07:44:02;4.47;;;3.30;;
7933;SDS011;4012;48.896;9.192;2023-04-28T07:46:32;8.37;;;5.80;;
7933;SDS011;4012;48.896;9.192;2023-04-28T07:48:58;4.37;;;3.97;;
7933;SDS011;4012;48.896;9.192;2023-04-28T07:51:24;4.13;;;3.63;;
7933;SDS011;4012;48.896;9.192;2023-04-28T07:53:49;3.97;;;3.57;;
7933;SDS011;4012;48.896;9.192;2023-04-28T07:56:15;4.87;;;4.23;;
7933;SDS011;4012;48.896;9.192;2023-04-28T07:58:41;5.30;;;4.67;;
7933;SDS011;4012;48.896;9.192;2023-04-28T08:01:06;5.10;;;4.10;;
7933;SDS011;4012;48.896;9.192;2023-04-28T08:03:32;5.80;;;4.27;;
7933;SDS011;4012;48.896;9.192;2023-04-28T08:05:58;4.47;;;3.97;;
7933;SDS011;4012;48.896;9.192;2023-04-28T08:08:23;5.57;;;4.50;;
7933;SDS011;4012;48.896;9.192;2023-04-28T08:10:49;5.10;;;3.93;;
7933;SDS011;4012;48.896;9.192;2023-04-28T08:13:16;4.50;;;4.10;;
7933;SDS011;4012;48.896;9.192;2023-04-28T08:15:42;5.00;;;4.50;;
7933;SDS011;4012;48.896;9.192;2023-04-28T08:18:07;5.53;;;4.63;;
7933;SDS011;4012;48.896;9.192;2023-04-28T08:20:33;5.10;;;4.43;;
7933;SDS011;4012;48.896;9.192;2023-04-28T08:22:59;4.10;;;3.70;;
7933;SDS011;4012;48.896;9.192;2023-04-28T08:25:24;4.83;;;4.00;;
7933;SDS011;4012;48.896;9.192;2023-04-28T08:27:50;4.67;;;3.73;;
7933;SDS011;4012;48.896;9.192;2023-04-28T08:30:16;4.83;;;4.27;;
7933;SDS011;4012;48.896;9.192;2023-04-28T08:32:42;5.37;;;4.23;;
7933;SDS011;4012;48.896;9.192;2023-04-28T08:35:07;6.10;;;4.43;;
7933;SDS011;4012;48.896;9.192;2023-04-28T08:37:33;4.60;;;4.17;;
7933;SDS011;4012;48.896;9.192;2023-04-28T08:39:59;8.07;;;4.40;;
7933;SDS011;4012;48.896;9.192;2023-04-28T08:42:33;5.10;;;4.60;;
7933;SDS011;4012;48.896;9.192;2023-04-28T08:44:59;5.03;;;3.97;;
7933;SDS011;4012;48.896;9.192;2023-04-28T08:47:37;4.53;;;3.73;;
7933;SDS011;4012;48.896;9.192;2023-04-28T08:50:08;5.00;;;4.00;;
7933;SDS011;4012;48.896;9.192;2023-04-28T08:52:34;4.13;;;3.40;;
7933;SDS011;4012;48.896;9.192;2023-04-28T08:55:00;4.43;;;4.03;;
7933;SDS011;4012;48.896;9.192;2023-04-28T08:57:36;6.10;;;4.53;;
7933;SDS011;4012;48.896;9.192;2023-04-28T09:00:07;5.27;;;4.27;;
7933;SDS011;4012;48.896;9.192;2023-04-28T09:02:33;3.97;;;3.47;;
7933;SDS011;4012;48.896;9.192;2023-04-28T09:05:01;4.00;;;3.60;;
7933;SDS011;4012;48.896;9.192;2023-04-28T09:07:34;5.67;;;4.00;;
7933;SDS011;4012;48.896;9.192;2023-04-28T09:10:14;4.70;;;4.17;;
7933;SDS011;4012;48.896;9.192;2023-04-28T09:12:50;5.00;;;4.50;;
7933;SDS011;4012;48.896;9.192;2023-04-28T09:15:33;4.73;;;4.00;;
7933;SDS011;4012;48.896;9.192;2023-04-28T09:18:03;6.63;;;3.97;;
7933;SDS011;4012;48.896;9.192;2023-04-28T09:20:30;4.57;;;3.23;;
7933;SDS011;4012;48.896;9.192;2023-04-28T09:23:19;4.47;;;3.10;;
7933;SDS011;4012;48.896;9.192;2023-04-28T09:26:03;4.63;;;3.37;;
7933;SDS011;4012;48.896;9.192;2023-04-28T09:28:30;4.17;;;3.40;;
7933;SDS011;4012;48.896;9.192;2023-04-28T09:30:57;3.53;;;2.73;;
7933;SDS011;4012;48.896;9.192;2023-04-28T09:33:22;5.33;;;4.63;;
7933;SDS011;4012;48.896;9.192;2023-04-28T09:35:48;3.87;;;3.37;;
7933;SDS011;4012;48.896;9.192;2023-04-28T09:38:15;3.60;;;3.13;;
7933;SDS011;4012;48.896;9.192;2023-04-28T09:40:54;3.53;;;2.50;;
7933;SDS011;4012;48.896;9.192;2023-04-28T09:43:25;3.50;;;3.10;;
7933;SDS011;4012;48.896;9.192;2023-04-28T09:45:52;3.53;;;2.90;;
7933;SDS011;4012;48.896;9.192;2023-04-28T09:51:19;3.10;;;2.60;;
7933;SDS011;4012;48.896;9.192;2023-04-28T09:53:45;5.10;;;2.80;;
7933;SDS011;4012;48.896;9.192;2023-04-28T09:56:10;2.80;;;2.60;;
7933;SDS011;4012;48.896;9.192;2023-04-28T10:01:35;4.07;;;2.37;;
7933;SDS011;4012;48.896;9.192;2023-04-28T10:04:08;2.77;;;2.43;;
7933;SDS011;4012;48.896;9.192;2023-04-28T10:06:38;4.37;;;3.77;;
7933;SDS011;4012;48.896;9.192;2023-04-28T10:09:08;7.90;;;6.03;;
7933;SDS011;4012;48.896;9.192;2023-04-28T10:11:36;3.27;;;2.53;;
7933;SDS011;4012;48.896;9.192;2023-04-28T10:14:03;4.23;;;2.70;;
7933;SDS011;4012;48.896;9.192;2023-04-28T10:16:29;2.07;;;1.93;;
7933;SDS011;4012;48.896;9.192;2023-04-28T10:18:58;1.90;;;1.80;;
7933;SDS011;4012;48.896;9.192;2023-04-28T10:21:27;2.57;;;2.10;;
7933;SDS011;4012;48.896;9.192;2023-04-28T10:24:08;3.13;;;2.20;;
7933;SDS011;4012;48.896;9.192;2023-04-28T10:33:50;2.90;;;2.60;;
7933;SDS011;4012;48.896;9.192;2023-04-28T10:35:45;2.43;;;2.00;;
7933;SDS011;4012;48.896;9.192;2023-04-28T10:38:18;3.20;;;2.30;;
7933;SDS011;4012;48.896;9.192;2023-04-28T10:40:53;2.57;;;2.13;;
7933;SDS011;4012;48.896;9.192;2023-04-28T10:56:06;5.63;;;3.33;;
7933;SDS011;4012;48.896;9.192;2023-04-28T10:58:33;2.77;;;2.37;;
7933;SDS011;4012;48.896;9.192;2023-04-28T11:08:56;2.40;;;1.80;;
7933;SDS011;4012;48.896;9.192;2023-04-28T11:11:27;1.60;;;1.13;;
7933;SDS011;4012;48.896;9.192;2023-04-28T11:16:49;2.10;;;1.80;;
7933;SDS011;4012;48.896;9.192;2023-04-28T11:19:23;1.20;;;1.10;;
7933;SDS011;4012;48.896;9.192;2023-04-28T11:21:49;0.90;;;0.90;;
7933;SDS011;4012;48.896;9.192;2023-04-28T11:24:16;0.93;;;0.90;;
7933;SDS011;4012;48.896;9.192;2023-04-28T11:26:42;0.90;;;0.90;;
7933;SDS011;4012;48.896;9.192;2023-04-28T11:29:08;1.43;;;1.33;;
7933;SDS011;4012;48.896;9.192;2023-04-28T11:31:35;1.47;;;1.10;;
7933;SDS011;4012;48.896;9.192;2023-04-28T11:34:02;2.63;;;0.87;;
7933;SDS011;4012;48.896;9.192;2023-04-28T11:36:34;1.10;;;1.00;;
7933;SDS011;4012;48.896;9.192;2023-04-28T11:39:02;1.27;;;1.00;;
7933;SDS011;4012;48.896;9.192;2023-04-28T11:41:33;1.33;;;1.00;;
7933;SDS011;4012;48.896;9.192;2023-04-28T11:44:15;1.40;;;1.30;;
7933;SDS011;4012;48.896;9.192;2023-04-28T11:46:47;1.20;;;0.90;;
7933;SDS011;4012;48.896;9.192;2023-04-28T11:49:19;1.30;;;1.20;;
7933;SDS011;4012;48.896;9.192;2023-04-28T11:51:45;2.03;;;1.00;;
7933;SDS011;4012;48.896;9.192;2023-04-28T11:54:13;0.90;;;0.90;;
7933;SDS011;4012;48.896;9.192;2023-04-28T11:56:53;3.47;;;1.90;;
7933;SDS011;4012;48.896;9.192;2023-04-28T11:59:26;2.70;;;2.10;;
7933;SDS011;4012;48.896;9.192;2023-04-28T12:01:53;4.83;;;1.20;;
7933;SDS011;4012;48.896;9.192;2023-04-28T12:04:39;1.73;;;0.97;;
7933;SDS011;4012;48.896;9.192;2023-04-28T12:07:13;1.07;;;0.97;;
7933;SDS011;4012;48.896;9.192;2023-04-28T12:09:40;0.90;;;0.90;;
7933;SDS011;4012;48.896;9.192;2023-04-28T12:12:07;2.07;;;1.63;;
7933;SDS011;4012;48.896;9.192;2023-04-28T12:14:56;0.90;;;0.90;;
7933;SDS011;4012;48.896;9.192;2023-04-28T12:17:30;3.27;;;1.40;;
7933;SDS011;4012;48.896;9.192;2023-04-28T12:20:04;1.70;;;1.60;;
7933;SDS011;4012;48.896;9.192;2023-04-28T12:25:11;1.50;;;1.40;;
7933;SDS011;4012;48.896;9.192;2023-04-28T12:27:41;0.80;;;0.73;;
7933;SDS011;4012;48.896;9.192;2023-04-28T12:30:26;1.20;;;1.10;;
7933;SDS011;4012;48.896;9.192;2023-04-28T12:32:55;1.00;;;0.80;;
7933;SDS011;4012;48.896;9.192;2023-04-28T12:35:21;0.97;;;0.83;;
7933;SDS011;4012;48.896;9.192;2023-04-28T12:37:48;1.27;;;0.97;;
7933;SDS011;4012;48.896;9.192;2023-04-28T12:40:14;1.00;;;0.90;;
7933;SDS011;4012;48.896;9.192;2023-04-28T12:42:40;1.20;;;1.10;;
7933;SDS011;4012;48.896;9.192;2023-04-28T12:45:06;3.47;;;1.87;;
7933;SDS011;4012;48.896;9.192;2023-04-28T12:47:32;2.37;;;1.17;;
7933;SDS011;4012;48.896;9.192;2023-04-28T12:49:58;0.67;;;0.67;;
7933;SDS011;4012;48.896;9.192;2023-04-28T12:52:24;1.23;;;1.13;;
7933;SDS011;4012;48.896;9.192;2023-04-28T12:54:49;1.13;;;1.03;;
7933;SDS011;4012;48.896;9.192;2023-04-28T12:57:15;1.57;;;1.00;;
7933;SDS011;4012;48.896;9.192;2023-04-28T12:59:42;0.83;;;0.83;;
7933;SDS011;4012;48.896;9.192;2023-04-28T13:02:08;0.70;;;0.70;;
7933;SDS011;4012;48.896;9.192;2023-04-28T13:04:34;1.53;;;1.20;;
7933;SDS011;4012;48.896;9.192;2023-04-28T13:06:59;1.60;;;1.30;;
7933;SDS011;4012;48.896;9.192;2023-04-28T13:09:26;4.43;;;2.13;;
7933;SDS011;4012;48.896;9.192;2023-04-28T13:11:52;1.43;;;1.30;;
7933;SDS011;4012;48.896;9.192;2023-04-28T13:14:20;2.70;;;1.53;;
7933;SDS011;4012;48.896;9.192;2023-04-28T13:16:46;1.30;;;1.20;;
7933;SDS011;4012;48.896;9.192;2023-04-28T13:19:12;0.80;;;0.80;;
7933;SDS011;4012;48.896;9.192;2023-04-28T13:21:42;2.67;;;1.30;;
7933;SDS011;4012;48.896;9.192;2023-04-28T13:24:08;3.37;;;1.60;;
7933;SDS011;4012;48.896;9.192;2023-04-28T13:26:34;1.97;;;1.63;;
7933;SDS011;4012;48.896;9.192;2023-04-28T13:29:01;1.53;;;1.23;;
7933;SDS011;4012;48.896;9.192;2023-04-28T13:31:28;1.33;;;1.00;;
7933;SDS011;4012;48.896;9.192;2023-04-28T13:33:56;0.90;;;0.90;;
7933;SDS011;4012;48.896;9.192;2023-04-28T13:36:23;1.10;;;1.10;;
7933;SDS011;4012;48.896;9.192;2023-04-28T13:38:49;1.63;;;1.53;;
7933;SDS011;4012;48.896;9.192;2023-04-28T13:41:15;1.70;;;1.20;;
7933;SDS011;4012;48.896;9.192;2023-04-28T13:43:41;1.07;;;1.00;;
7933;SDS011;4012;48.896;9.192;2023-04-28T13:46:07;1.50;;;1.17;;
7933;SDS011;4012;48.896;9.192;2023-04-28T13:48:34;1.07;;;0.97;;
7933;SDS011;4012;48.896;9.192;2023-04-28T13:51:03;2.33;;;1.20;;
7933;SDS011;4012;48.896;9.192;2023-04-28T13:53:29;1.80;;;1.60;;
7933;SDS011;4012;48.896;9.192;2023-04-28T13:55:55;2.13;;;0.97;;
7933;SDS011;4012;48.896;9.192;2023-04-28T13:58:28;1.50;;;1.17;;
7933;SDS011;4012;48.896;9.192;2023-04-28T14:00:54;2.23;;;1.60;;
7933;SDS011;4012;48.896;9.192;2023-04-28T14:03:21;3.10;;;2.07;;
7933;SDS011;4012;48.896;9.192;2023-04-28T14:05:48;0.80;;;0.80;;
7933;SDS011;4012;48.896;9.192;2023-04-28T14:08:18;2.50;;;1.10;;
7933;SDS011;4012;48.896;9.192;2023-04-28T14:10:45;2.37;;;1.60;;
7933;SDS011;4012;48.896;9.192;2023-04-28T14:13:11;1.47;;;1.17;;
7933;SDS011;4012;48.896;9.192;2023-04-28T14:15:37;1.60;;;1.50;;
7933;SDS011;4012;48.896;9.192;2023-04-28T14:18:04;1.30;;;1.20;;
7933;SDS011;4012;48.896;9.192;2023-04-28T14:20:30;1.63;;;1.30;;
7933;SDS011;4012;48.896;9.192;2023-04-28T14:22:56;1.50;;;1.40;;
7933;SDS011;4012;48.896;9.192;2023-04-28T14:25:25;1.20;;;1.10;;
7933;SDS011;4012;48.896;9.192;2023-04-28T14:27:51;3.23;;;1.43;;
7933;SDS011;4012;48.896;9.192;2023-04-28T14:30:17;1.57;;;1.47;;
7933;SDS011;4012;48.896;9.192;2023-04-28T14:32:44;1.80;;;1.07;;
7933;SDS011;4012;48.896;9.192;2023-04-28T14:35:10;1.53;;;1.43;;
7933;SDS011;4012;48.896;9.192;2023-04-28T14:37:37;1.60;;;1.37;;
7933;SDS011;4012;48.896;9.192;2023-04-28T14:40:04;1.10;;;1.00;;
7933;SDS011;4012;48.896;9.192;2023-04-28T14:42:30;2.17;;;1.20;;
7933;SDS011;4012;48.896;9.192;2023-04-28T14:45:00;1.23;;;1.00;;
7933;SDS011;4012;48.896;9.192;2023-04-28T14:47:30;1.20;;;1.10;;
7933;SDS011;4012;48.896;9.192;2023-04-28T14:49:56;1.87;;;1.10;;
7933;SDS011;4012;48.896;9.192;2023-04-28T14:52:22;3.43;;;1.30;;
7933;SDS011;4012;48.896;9.192;2023-04-28T14:54:49;1.50;;;1.40;;
7933;SDS011;4012;48.896;9.192;2023-04-28T14:57:15;2.33;;;1.20;;
7933;SDS011;4012;48.896;9.192;2023-04-28T14:59:42;1.53;;;1.30;;
7933;SDS011;4012;48.896;9.192;2023-04-28T15:02:08;2.60;;;2.40;;
7933;SDS011;4012;48.896;9.192;2023-04-28T15:04:34;4.37;;;3.13;;
7933;SDS011;4012;48.896;9.192;2023-04-28T15:07:00;1.40;;;1.30;;
7933;SDS011;4012;48.896;9.192;2023-04-28T15:09:25;1.87;;;1.40;;
7933;SDS011;4012;48.896;9.192;2023-04-28T15:11:52;3.57;;;3.07;;
7933;SDS011;4012;48.896;9.192;2023-04-28T15:14:18;1.80;;;1.70;;
7933;SDS011;4012;48.896;9.192;2023-04-28T15:16:44;3.50;;;2.27;;
7933;SDS011;4012;48.896;9.192;2023-04-28T15:19:11;1.67;;;1.57;;
7933;SDS011;4012;48.896;9.192;2023-04-28T15:21:36;3.37;;;1.70;;
7933;SDS011;4012;48.896;9.192;2023-04-28T15:24:02;2.13;;;1.77;;
7933;SDS011;4012;48.896;9.192;2023-04-28T15:26:28;3.10;;;1.60;;
7933;SDS011;4012;48.896;9.192;2023-04-28T15:28:54;1.87;;;1.50;;
7933;SDS011;4012;48.896;9.192;2023-04-28T15:31:19;2.53;;;1.73;;
7933;SDS011;4012;48.896;9.192;2023-04-28T15:33:49;2.37;;;1.70;;
7933;SDS011;4012;48.896;9.192;2023-04-28T15:36:18;2.07;;;1.60;;
7933;SDS011;4012;48.896;9.192;2023-04-28T15:38:44;2.13;;;1.70;;
7933;SDS011;4012;48.896;9.192;2023-04-28T15:41:15;3.03;;;1.50;;
7933;SDS011;4012;48.896;9.192;2023-04-28T15:43:41;1.77;;;1.57;;
7933;SDS011;4012;48.896;9.192;2023-04-28T15:46:08;2.10;;;1.70;;
7933;SDS011;4012;48.896;9.192;2023-04-28T15:48:35;4.07;;;1.80;;
7933;SDS011;4012;48.896;9.192;2023-04-28T15:51:02;2.47;;;1.97;;
7933;SDS011;4012;48.896;9.192;2023-04-28T15:53:28;2.13;;;1.80;;